sensor_id;sensor_type;location;lat;lon;timestamp;P1;durP1;ratioP1;P2;durP2;ratioP2
12302;SDS011;6214;48.012;7.862;2023-06-26T00:01:31;7.05;;;4.20;;
12302;SDS011;6214;48.012;7.862;2023-06-26T00:03:59;7.15;;;4.57;;
12302;SDS011;6214;48.012;7.862;2023-06-26T00:06:27;6.90;;;4.10;;
12302;SDS011;6214;48.012;7.862;2023-06-26T00:08:54;6.53;;;3.90;;
12302;SDS011;6214;48.012;7.862;2023-06-26T00:11:22;6.90;;;4.20;;
12302;SDS011;6214;48.012;7.862;2023-06-26T00:13:50;6.90;;;4.20;;
12302;SDS011;6214;48.012;7.862;2023-06-26T00:16:17;6.82;;;4.00;;
12302;SDS011;6214;48.012;7.862;2023-06-26T00:18:44;7.40;;;4.50;;
12302;SDS011;6214;48.012;7.862;2023-06-26T00:21:11;7.50;;;4.50;;
12302;SDS011;6214;48.012;7.862;2023-06-26T00:23:38;7.10;;;4.60;;
12302;SDS011;6214;48.012;7.862;2023-06-26T00:26:06;6.60;;;4.20;;
12302;SDS011;6214;48.012;7.862;2023-06-26T00:28:33;7.30;;;4.40;;
12302;SDS011;6214;48.012;7.862;2023-06-26T00:31:00;6.85;;;4.00;;
12302;SDS011;6214;48.012;7.862;2023-06-26T00:33:27;6.93;;;4.50;;
12302;SDS011;6214;48.012;7.862;2023-06-26T00:35:54;7.67;;;4.27;;
12302;SDS011;6214;48.012;7.862;2023-06-26T00:38:21;6.80;;;4.25;;
12302;SDS011;6214;48.012;7.862;2023-06-26T00:40:48;6.50;;;3.80;;
12302;SDS011;6214;48.012;7.862;2023-06-26T00:43:15;7.65;;;4.50;;
12302;SDS011;6214;48.012;7.862;2023-06-26T00:45:42;7.00;;;4.30;;
12302;SDS011;6214;48.012;7.862;2023-06-26T00:48:10;6.72;;;4.25;;
12302;SDS011;6214;48.012;7.862;2023-06-26T00:50:41;6.80;;;4.25;;
12302;SDS011;6214;48.012;7.862;2023-06-26T00:53:11;7.20;;;4.28;;
12302;SDS011;6214;48.012;7.862;2023-06-26T00:55:38;7.10;;;4.27;;
12302;SDS011;6214;48.012;7.862;2023-06-26T00:58:05;8.02;;;4.30;;
12302;SDS011;6214;48.012;7.862;2023-06-26T01:00:32;7.32;;;4.60;;
12302;SDS011;6214;48.012;7.862;2023-06-26T01:03:00;6.40;;;3.90;;
12302;SDS011;6214;48.012;7.862;2023-06-26T01:05:27;7.20;;;4.50;;
12302;SDS011;6214;48.012;7.862;2023-06-26T01:07:56;6.90;;;4.43;;
12302;SDS011;6214;48.012;7.862;2023-06-26T01:10:25;7.55;;;4.82;;
12302;SDS011;6214;48.012;7.862;2023-06-26T01:12:54;6.30;;;4.10;;
12302;SDS011;6214;48.012;7.862;2023-06-26T01:15:21;7.80;;;4.60;;
12302;SDS011;6214;48.012;7.862;2023-06-26T01:17:49;7.05;;;4.38;;
12302;SDS011;6214;48.012;7.862;2023-06-26T01:20:17;7.60;;;4.80;;
12302;SDS011;6214;48.012;7.862;2023-06-26T01:22:47;6.80;;;4.50;;
12302;SDS011;6214;48.012;7.862;2023-06-26T01:28:49;7.23;;;4.57;;
12302;SDS011;6214;48.012;7.862;2023-06-26T01:31:17;7.13;;;4.47;;
12302;SDS011;6214;48.012;7.862;2023-06-26T01:33:46;7.00;;;4.50;;
12302;SDS011;6214;48.012;7.862;2023-06-26T01:36:13;6.60;;;4.30;;
12302;SDS011;6214;48.012;7.862;2023-06-26T01:38:40;6.70;;;4.40;;
12302;SDS011;6214;48.012;7.862;2023-06-26T01:41:07;7.32;;;4.68;;
12302;SDS011;6214;48.012;7.862;2023-06-26T01:43:47;7.90;;;4.55;;
12302;SDS011;6214;48.012;7.862;2023-06-26T01:49:28;7.10;;;4.50;;
12302;SDS011;6214;48.012;7.862;2023-06-26T01:52:23;7.50;;;4.55;;
12302;SDS011;6214;48.012;7.862;2023-06-26T01:55:12;7.43;;;4.50;;
12302;SDS011;6214;48.012;7.862;2023-06-26T01:57:45;7.30;;;4.20;;
12302;SDS011;6214;48.012;7.862;2023-06-26T02:00:14;7.20;;;4.30;;
12302;SDS011;6214;48.012;7.862;2023-06-26T02:02:44;7.35;;;4.22;;
12302;SDS011;6214;48.012;7.862;2023-06-26T02:05:11;7.00;;;4.40;;
12302;SDS011;6214;48.012;7.862;2023-06-26T02:07:39;6.50;;;4.40;;
12302;SDS011;6214;48.012;7.862;2023-06-26T02:10:06;7.43;;;4.20;;
12302;SDS011;6214;48.012;7.862;2023-06-26T02:12:34;7.13;;;4.50;;
12302;SDS011;6214;48.012;7.862;2023-06-26T02:15:02;7.03;;;4.40;;
12302;SDS011;6214;48.012;7.862;2023-06-26T02:17:30;8.00;;;4.80;;
12302;SDS011;6214;48.012;7.862;2023-06-26T02:19:57;7.30;;;5.10;;
12302;SDS011;6214;48.012;7.862;2023-06-26T02:22:24;6.60;;;4.55;;
12302;SDS011;6214;48.012;7.862;2023-06-26T02:24:51;7.40;;;4.50;;
12302;SDS011;6214;48.012;7.862;2023-06-26T02:27:18;7.22;;;4.80;;
12302;SDS011;6214;48.012;7.862;2023-06-26T02:29:45;7.40;;;4.80;;
12302;SDS011;6214;48.012;7.862;2023-06-26T02:32:11;7.00;;;4.30;;
12302;SDS011;6214;48.012;7.862;2023-06-26T02:34:38;6.60;;;4.20;;
12302;SDS011;6214;48.012;7.862;2023-06-26T02:37:05;7.30;;;4.60;;
12302;SDS011;6214;48.012;7.862;2023-06-26T02:39:34;6.70;;;4.30;;
12302;SDS011;6214;48.012;7.862;2023-06-26T02:42:01;8.05;;;4.60;;
12302;SDS011;6214;48.012;7.862;2023-06-26T02:44:27;6.73;;;4.37;;
12302;SDS011;6214;48.012;7.862;2023-06-26T02:46:54;7.00;;;4.60;;
12302;SDS011;6214;48.012;7.862;2023-06-26T02:49:21;6.70;;;4.22;;
12302;SDS011;6214;48.012;7.862;2023-06-26T02:51:49;7.30;;;4.65;;
12302;SDS011;6214;48.012;7.862;2023-06-26T02:54:16;7.43;;;4.28;;
12302;SDS011;6214;48.012;7.862;2023-06-26T02:56:42;6.90;;;4.32;;
12302;SDS011;6214;48.012;7.862;2023-06-26T02:59:13;6.83;;;4.00;;
12302;SDS011;6214;48.012;7.862;2023-06-26T03:01:41;6.53;;;4.38;;
12302;SDS011;6214;48.012;7.862;2023-06-26T03:04:07;7.60;;;4.63;;
12302;SDS011;6214;48.012;7.862;2023-06-26T03:06:35;7.57;;;4.18;;
12302;SDS011;6214;48.012;7.862;2023-06-26T03:09:02;7.00;;;4.60;;
12302;SDS011;6214;48.012;7.862;2023-06-26T03:11:29;6.85;;;4.20;;
12302;SDS011;6214;48.012;7.862;2023-06-26T03:13:56;6.35;;;4.13;;
12302;SDS011;6214;48.012;7.862;2023-06-26T03:16:23;7.40;;;4.80;;
12302;SDS011;6214;48.012;7.862;2023-06-26T03:18:50;7.70;;;4.82;;
12302;SDS011;6214;48.012;7.862;2023-06-26T03:21:17;7.18;;;4.53;;
12302;SDS011;6214;48.012;7.862;2023-06-26T03:23:44;7.78;;;4.95;;
12302;SDS011;6214;48.012;7.862;2023-06-26T03:26:11;6.75;;;4.40;;
12302;SDS011;6214;48.012;7.862;2023-06-26T03:28:40;6.63;;;4.50;;
12302;SDS011;6214;48.012;7.862;2023-06-26T03:31:08;7.20;;;4.80;;
12302;SDS011;6214;48.012;7.862;2023-06-26T03:33:35;7.00;;;4.65;;
12302;SDS011;6214;48.012;7.862;2023-06-26T03:36:03;7.60;;;4.30;;
12302;SDS011;6214;48.012;7.862;2023-06-26T03:38:30;6.70;;;4.40;;
12302;SDS011;6214;48.012;7.862;2023-06-26T03:40:57;7.32;;;4.60;;
12302;SDS011;6214;48.012;7.862;2023-06-26T03:43:24;8.52;;;4.75;;
12302;SDS011;6214;48.012;7.862;2023-06-26T03:45:51;7.22;;;4.50;;
12302;SDS011;6214;48.012;7.862;2023-06-26T03:48:18;7.15;;;4.40;;
12302;SDS011;6214;48.012;7.862;2023-06-26T03:50:44;7.10;;;4.57;;
12302;SDS011;6214;48.012;7.862;2023-06-26T03:53:11;8.25;;;4.85;;
12302;SDS011;6214;48.012;7.862;2023-06-26T03:55:38;7.00;;;4.53;;
12302;SDS011;6214;48.012;7.862;2023-06-26T03:58:05;7.13;;;4.50;;
12302;SDS011;6214;48.012;7.862;2023-06-26T04:00:32;7.15;;;4.72;;
12302;SDS011;6214;48.012;7.862;2023-06-26T04:02:59;7.33;;;4.40;;
12302;SDS011;6214;48.012;7.862;2023-06-26T04:05:26;7.88;;;4.68;;
12302;SDS011;6214;48.012;7.862;2023-06-26T04:07:53;6.65;;;4.22;;
12302;SDS011;6214;48.012;7.862;2023-06-26T04:10:21;7.53;;;4.75;;
12302;SDS011;6214;48.012;7.862;2023-06-26T04:12:48;6.40;;;4.10;;
12302;SDS011;6214;48.012;7.862;2023-06-26T04:15:14;7.10;;;4.70;;
12302;SDS011;6214;48.012;7.862;2023-06-26T04:17:41;7.60;;;4.60;;
12302;SDS011;6214;48.012;7.862;2023-06-26T04:20:08;6.90;;;4.50;;
12302;SDS011;6214;48.012;7.862;2023-06-26T04:22:35;8.00;;;4.50;;
12302;SDS011;6214;48.012;7.862;2023-06-26T04:25:02;6.70;;;4.57;;
12302;SDS011;6214;48.012;7.862;2023-06-26T04:27:30;7.07;;;4.60;;
12302;SDS011;6214;48.012;7.862;2023-06-26T04:29:57;7.40;;;4.50;;
12302;SDS011;6214;48.012;7.862;2023-06-26T04:32:23;6.90;;;4.50;;
12302;SDS011;6214;48.012;7.862;2023-06-26T04:34:50;7.30;;;4.55;;
12302;SDS011;6214;48.012;7.862;2023-06-26T04:37:17;6.67;;;4.20;;
12302;SDS011;6214;48.012;7.862;2023-06-26T04:39:44;6.80;;;4.40;;
12302;SDS011;6214;48.012;7.862;2023-06-26T04:42:11;7.10;;;4.63;;
12302;SDS011;6214;48.012;7.862;2023-06-26T04:44:38;7.10;;;4.78;;
12302;SDS011;6214;48.012;7.862;2023-06-26T04:47:07;7.70;;;4.90;;
12302;SDS011;6214;48.012;7.862;2023-06-26T04:49:34;9.80;;;4.80;;
12302;SDS011;6214;48.012;7.862;2023-06-26T04:52:04;7.47;;;4.90;;
12302;SDS011;6214;48.012;7.862;2023-06-26T04:54:31;7.30;;;4.80;;
12302;SDS011;6214;48.012;7.862;2023-06-26T04:56:58;7.30;;;4.70;;
12302;SDS011;6214;48.012;7.862;2023-06-26T04:59:26;6.80;;;4.50;;
12302;SDS011;6214;48.012;7.862;2023-06-26T05:01:53;7.60;;;5.00;;
12302;SDS011;6214;48.012;7.862;2023-06-26T05:04:20;8.23;;;4.93;;
12302;SDS011;6214;48.012;7.862;2023-06-26T05:06:47;6.78;;;4.57;;
12302;SDS011;6214;48.012;7.862;2023-06-26T05:09:14;8.23;;;5.00;;
12302;SDS011;6214;48.012;7.862;2023-06-26T05:11:41;7.00;;;4.50;;
12302;SDS011;6214;48.012;7.862;2023-06-26T05:14:07;8.30;;;4.90;;
12302;SDS011;6214;48.012;7.862;2023-06-26T05:16:35;7.67;;;4.90;;
12302;SDS011;6214;48.012;7.862;2023-06-26T05:19:02;7.32;;;4.82;;
12302;SDS011;6214;48.012;7.862;2023-06-26T05:21:29;7.75;;;4.70;;
12302;SDS011;6214;48.012;7.862;2023-06-26T05:23:56;7.10;;;4.80;;
12302;SDS011;6214;48.012;7.862;2023-06-26T05:26:25;7.60;;;4.85;;
12302;SDS011;6214;48.012;7.862;2023-06-26T05:28:52;6.93;;;4.47;;
12302;SDS011;6214;48.012;7.862;2023-06-26T05:31:20;7.60;;;5.00;;
12302;SDS011;6214;48.012;7.862;2023-06-26T05:33:47;7.30;;;4.70;;
12302;SDS011;6214;48.012;7.862;2023-06-26T05:36:15;7.20;;;4.53;;
12302;SDS011;6214;48.012;7.862;2023-06-26T05:38:43;6.97;;;4.70;;
12302;SDS011;6214;48.012;7.862;2023-06-26T05:41:10;7.10;;;4.80;;
12302;SDS011;6214;48.012;7.862;2023-06-26T05:43:37;7.05;;;4.85;;
12302;SDS011;6214;48.012;7.862;2023-06-26T05:46:04;8.15;;;5.00;;
12302;SDS011;6214;48.012;7.862;2023-06-26T05:48:31;6.80;;;4.37;;
12302;SDS011;6214;48.012;7.862;2023-06-26T05:50:58;7.15;;;4.85;;
12302;SDS011;6214;48.012;7.862;2023-06-26T05:53:25;7.13;;;4.70;;
12302;SDS011;6214;48.012;7.862;2023-06-26T05:55:52;6.78;;;4.60;;
12302;SDS011;6214;48.012;7.862;2023-06-26T05:58:19;7.10;;;4.70;;
12302;SDS011;6214;48.012;7.862;2023-06-26T06:00:47;7.65;;;4.90;;
12302;SDS011;6214;48.012;7.862;2023-06-26T06:03:14;8.35;;;4.90;;
12302;SDS011;6214;48.012;7.862;2023-06-26T06:05:41;7.67;;;4.90;;
12302;SDS011;6214;48.012;7.862;2023-06-26T06:08:08;8.60;;;4.90;;
12302;SDS011;6214;48.012;7.862;2023-06-26T06:10:35;6.60;;;4.90;;
12302;SDS011;6214;48.012;7.862;2023-06-26T06:13:02;7.28;;;4.90;;
12302;SDS011;6214;48.012;7.862;2023-06-26T06:15:29;7.80;;;4.97;;
12302;SDS011;6214;48.012;7.862;2023-06-26T06:17:56;6.70;;;4.35;;
12302;SDS011;6214;48.012;7.862;2023-06-26T06:20:24;7.40;;;4.78;;
12302;SDS011;6214;48.012;7.862;2023-06-26T06:22:51;8.13;;;5.30;;
12302;SDS011;6214;48.012;7.862;2023-06-26T06:25:18;7.57;;;4.82;;
12302;SDS011;6214;48.012;7.862;2023-06-26T06:27:44;7.00;;;5.10;;
12302;SDS011;6214;48.012;7.862;2023-06-26T06:30:12;7.50;;;4.90;;
12302;SDS011;6214;48.012;7.862;2023-06-26T06:32:39;7.35;;;5.10;;
12302;SDS011;6214;48.012;7.862;2023-06-26T06:35:06;7.15;;;5.10;;
12302;SDS011;6214;48.012;7.862;2023-06-26T06:37:37;7.17;;;5.20;;
12302;SDS011;6214;48.012;7.862;2023-06-26T06:40:05;6.75;;;4.65;;
12302;SDS011;6214;48.012;7.862;2023-06-26T06:42:33;8.13;;;4.93;;
12302;SDS011;6214;48.012;7.862;2023-06-26T06:45:01;7.30;;;5.00;;
12302;SDS011;6214;48.012;7.862;2023-06-26T06:47:28;7.57;;;5.20;;
12302;SDS011;6214;48.012;7.862;2023-06-26T06:49:56;6.70;;;4.80;;
12302;SDS011;6214;48.012;7.862;2023-06-26T06:52:23;9.40;;;5.07;;
12302;SDS011;6214;48.012;7.862;2023-06-26T06:54:56;7.50;;;5.03;;
12302;SDS011;6214;48.012;7.862;2023-06-26T06:57:32;6.60;;;4.90;;
12302;SDS011;6214;48.012;7.862;2023-06-26T07:00:11;6.50;;;4.60;;
12302;SDS011;6214;48.012;7.862;2023-06-26T07:02:42;6.93;;;4.80;;
12302;SDS011;6214;48.012;7.862;2023-06-26T07:05:10;6.47;;;4.70;;
12302;SDS011;6214;48.012;7.862;2023-06-26T07:07:38;6.65;;;4.70;;
12302;SDS011;6214;48.012;7.862;2023-06-26T07:10:09;6.55;;;4.63;;
12302;SDS011;6214;48.012;7.862;2023-06-26T07:12:38;6.80;;;4.55;;
12302;SDS011;6214;48.012;7.862;2023-06-26T07:15:05;7.10;;;4.50;;
12302;SDS011;6214;48.012;7.862;2023-06-26T07:17:33;6.60;;;4.90;;
12302;SDS011;6214;48.012;7.862;2023-06-26T07:20:01;6.70;;;5.15;;
12302;SDS011;6214;48.012;7.862;2023-06-26T07:22:32;7.80;;;4.80;;
12302;SDS011;6214;48.012;7.862;2023-06-26T07:24:59;7.57;;;4.95;;
12302;SDS011;6214;48.012;7.862;2023-06-26T07:27:26;7.03;;;4.82;;
12302;SDS011;6214;48.012;7.862;2023-06-26T07:29:53;6.80;;;4.82;;
12302;SDS011;6214;48.012;7.862;2023-06-26T07:32:20;7.00;;;4.77;;
12302;SDS011;6214;48.012;7.862;2023-06-26T07:34:47;9.00;;;4.80;;
12302;SDS011;6214;48.012;7.862;2023-06-26T07:37:14;6.70;;;4.70;;
12302;SDS011;6214;48.012;7.862;2023-06-26T07:39:41;7.40;;;5.00;;
12302;SDS011;6214;48.012;7.862;2023-06-26T07:42:08;8.07;;;4.80;;
12302;SDS011;6214;48.012;7.862;2023-06-26T07:44:35;7.50;;;4.80;;
12302;SDS011;6214;48.012;7.862;2023-06-26T07:47:02;7.00;;;4.97;;
12302;SDS011;6214;48.012;7.862;2023-06-26T07:49:29;7.40;;;4.82;;
12302;SDS011;6214;48.012;7.862;2023-06-26T07:51:56;7.40;;;4.88;;
12302;SDS011;6214;48.012;7.862;2023-06-26T07:54:23;7.63;;;4.47;;
12302;SDS011;6214;48.012;7.862;2023-06-26T07:56:57;6.53;;;4.93;;
12302;SDS011;6214;48.012;7.862;2023-06-26T07:59:26;7.30;;;4.80;;
12302;SDS011;6214;48.012;7.862;2023-06-26T08:01:54;7.00;;;4.90;;
12302;SDS011;6214;48.012;7.862;2023-06-26T08:04:23;6.70;;;4.70;;
12302;SDS011;6214;48.012;7.862;2023-06-26T08:06:53;7.40;;;5.30;;
12302;SDS011;6214;48.012;7.862;2023-06-26T08:09:22;7.00;;;4.70;;
12302;SDS011;6214;48.012;7.862;2023-06-26T08:11:50;6.72;;;4.82;;
12302;SDS011;6214;48.012;7.862;2023-06-26T08:14:17;7.93;;;4.95;;
12302;SDS011;6214;48.012;7.862;2023-06-26T08:16:44;8.50;;;5.20;;
12302;SDS011;6214;48.012;7.862;2023-06-26T08:19:12;7.40;;;5.15;;
12302;SDS011;6214;48.012;7.862;2023-06-26T08:21:40;7.20;;;4.82;;
12302;SDS011;6214;48.012;7.862;2023-06-26T08:24:08;7.60;;;5.10;;
12302;SDS011;6214;48.012;7.862;2023-06-26T08:26:35;7.88;;;5.50;;
12302;SDS011;6214;48.012;7.862;2023-06-26T08:29:03;7.22;;;5.40;;
12302;SDS011;6214;48.012;7.862;2023-06-26T08:31:38;7.82;;;5.57;;
12302;SDS011;6214;48.012;7.862;2023-06-26T08:34:06;7.72;;;5.15;;
12302;SDS011;6214;48.012;7.862;2023-06-26T08:36:34;7.20;;;5.30;;
12302;SDS011;6214;48.012;7.862;2023-06-26T08:39:01;7.20;;;5.30;;
12302;SDS011;6214;48.012;7.862;2023-06-26T08:41:31;7.10;;;5.10;;
12302;SDS011;6214;48.012;7.862;2023-06-26T08:43:58;8.73;;;5.40;;
12302;SDS011;6214;48.012;7.862;2023-06-26T08:46:25;7.53;;;5.35;;
12302;SDS011;6214;48.012;7.862;2023-06-26T08:48:55;7.88;;;5.10;;
12302;SDS011;6214;48.012;7.862;2023-06-26T08:51:24;10.10;;;5.68;;
12302;SDS011;6214;48.012;7.862;2023-06-26T08:53:58;7.50;;;5.55;;
12302;SDS011;6214;48.012;7.862;2023-06-26T08:56:27;7.40;;;5.40;;
12302;SDS011;6214;48.012;7.862;2023-06-26T08:59:01;8.00;;;5.55;;
12302;SDS011;6214;48.012;7.862;2023-06-26T09:01:28;8.35;;;5.40;;
12302;SDS011;6214;48.012;7.862;2023-06-26T09:03:56;7.67;;;6.00;;
12302;SDS011;6214;48.012;7.862;2023-06-26T09:06:24;7.57;;;5.70;;
12302;SDS011;6214;48.012;7.862;2023-06-26T09:08:51;7.45;;;5.65;;
12302;SDS011;6214;48.012;7.862;2023-06-26T09:11:18;7.65;;;5.75;;
12302;SDS011;6214;48.012;7.862;2023-06-26T09:13:45;7.28;;;5.35;;
12302;SDS011;6214;48.012;7.862;2023-06-26T09:16:13;8.00;;;5.80;;
12302;SDS011;6214;48.012;7.862;2023-06-26T09:18:41;7.22;;;5.53;;
12302;SDS011;6214;48.012;7.862;2023-06-26T09:21:10;8.33;;;5.90;;
12302;SDS011;6214;48.012;7.862;2023-06-26T09:23:39;7.93;;;5.78;;
12302;SDS011;6214;48.012;7.862;2023-06-26T09:26:07;7.63;;;5.60;;
12302;SDS011;6214;48.012;7.862;2023-06-26T09:28:34;7.72;;;5.60;;
12302;SDS011;6214;48.012;7.862;2023-06-26T09:31:05;8.00;;;5.75;;
12302;SDS011;6214;48.012;7.862;2023-06-26T09:33:34;10.88;;;6.35;;
12302;SDS011;6214;48.012;7.862;2023-06-26T09:36:07;7.80;;;6.20;;
12302;SDS011;6214;48.012;7.862;2023-06-26T09:38:36;9.77;;;6.00;;
12302;SDS011;6214;48.012;7.862;2023-06-26T09:41:03;7.60;;;5.80;;
12302;SDS011;6214;48.012;7.862;2023-06-26T09:43:30;8.30;;;6.20;;
12302;SDS011;6214;48.012;7.862;2023-06-26T09:45:58;8.00;;;5.80;;
12302;SDS011;6214;48.012;7.862;2023-06-26T09:48:27;8.30;;;6.20;;
12302;SDS011;6214;48.012;7.862;2023-06-26T09:50:55;9.40;;;6.50;;
12302;SDS011;6214;48.012;7.862;2023-06-26T09:53:38;8.02;;;6.22;;
12302;SDS011;6214;48.012;7.862;2023-06-26T09:56:11;7.90;;;6.10;;
12302;SDS011;6214;48.012;7.862;2023-06-26T09:58:45;10.00;;;6.70;;
12302;SDS011;6214;48.012;7.862;2023-06-26T10:01:13;7.97;;;6.30;;
12302;SDS011;6214;48.012;7.862;2023-06-26T10:03:40;9.33;;;6.10;;
12302;SDS011;6214;48.012;7.862;2023-06-26T10:06:07;8.20;;;6.10;;
12302;SDS011;6214;48.012;7.862;2023-06-26T10:08:37;7.70;;;6.10;;
12302;SDS011;6214;48.012;7.862;2023-06-26T10:11:06;7.97;;;6.10;;
12302;SDS011;6214;48.012;7.862;2023-06-26T10:13:38;8.20;;;6.13;;
12302;SDS011;6214;48.012;7.862;2023-06-26T10:16:08;8.55;;;6.00;;
12302;SDS011;6214;48.012;7.862;2023-06-26T10:18:37;8.07;;;6.10;;
12302;SDS011;6214;48.012;7.862;2023-06-26T10:21:05;10.45;;;5.82;;
12302;SDS011;6214;48.012;7.862;2023-06-26T10:23:34;8.68;;;6.00;;
12302;SDS011;6214;48.012;7.862;2023-06-26T10:26:05;8.90;;;6.00;;
12302;SDS011;6214;48.012;7.862;2023-06-26T10:28:33;9.00;;;6.20;;
12302;SDS011;6214;48.012;7.862;2023-06-26T10:31:01;7.95;;;6.38;;
12302;SDS011;6214;48.012;7.862;2023-06-26T10:33:30;7.60;;;6.00;;
12302;SDS011;6214;48.012;7.862;2023-06-26T10:36:14;8.77;;;6.25;;
12302;SDS011;6214;48.012;7.862;2023-06-26T10:38:52;8.30;;;5.53;;
12302;SDS011;6214;48.012;7.862;2023-06-26T10:41:21;8.07;;;5.50;;
12302;SDS011;6214;48.012;7.862;2023-06-26T10:46:32;8.30;;;5.80;;
12302;SDS011;6214;48.012;7.862;2023-06-26T10:49:00;7.40;;;5.63;;
12302;SDS011;6214;48.012;7.862;2023-06-26T10:51:28;8.00;;;6.00;;
12302;SDS011;6214;48.012;7.862;2023-06-26T10:53:55;7.47;;;5.83;;
12302;SDS011;6214;48.012;7.862;2023-06-26T10:59:14;8.00;;;6.00;;
12302;SDS011;6214;48.012;7.862;2023-06-26T11:02:01;8.48;;;5.78;;
12302;SDS011;6214;48.012;7.862;2023-06-26T11:07:23;7.93;;;5.60;;
12302;SDS011;6214;48.012;7.862;2023-06-26T11:09:55;8.68;;;5.90;;
12302;SDS011;6214;48.012;7.862;2023-06-26T11:12:40;8.48;;;6.22;;
12302;SDS011;6214;48.012;7.862;2023-06-26T11:15:09;7.75;;;5.80;;
12302;SDS011;6214;48.012;7.862;2023-06-26T11:17:38;8.30;;;6.00;;
12302;SDS011;6214;48.012;7.862;2023-06-26T11:20:05;8.80;;;5.60;;
12302;SDS011;6214;48.012;7.862;2023-06-26T11:22:37;7.45;;;5.60;;
12302;SDS011;6214;48.012;7.862;2023-06-26T11:25:06;7.35;;;5.57;;
12302;SDS011;6214;48.012;7.862;2023-06-26T11:27:43;7.40;;;5.45;;
12302;SDS011;6214;48.012;7.862;2023-06-26T11:30:11;7.93;;;5.95;;
12302;SDS011;6214;48.012;7.862;2023-06-26T11:32:49;8.38;;;6.10;;
12302;SDS011;6214;48.012;7.862;2023-06-26T11:35:23;8.80;;;6.40;;
12302;SDS011;6214;48.012;7.862;2023-06-26T11:37:57;8.30;;;6.30;;
12302;SDS011;6214;48.012;7.862;2023-06-26T11:40:32;7.70;;;5.80;;
12302;SDS011;6214;48.012;7.862;2023-06-26T11:43:00;7.90;;;5.53;;
12302;SDS011;6214;48.012;7.862;2023-06-26T11:45:28;6.82;;;5.20;;
12302;SDS011;6214;48.012;7.862;2023-06-26T11:47:57;7.15;;;5.10;;
12302;SDS011;6214;48.012;7.862;2023-06-26T11:50:25;7.20;;;5.30;;
12302;SDS011;6214;48.012;7.862;2023-06-26T11:52:54;8.13;;;5.10;;
12302;SDS011;6214;48.012;7.862;2023-06-26T11:55:22;7.40;;;5.30;;
12302;SDS011;6214;48.012;7.862;2023-06-26T11:57:50;8.52;;;5.40;;
12302;SDS011;6214;48.012;7.862;2023-06-26T12:00:20;8.30;;;5.20;;
12302;SDS011;6214;48.012;7.862;2023-06-26T12:02:48;7.78;;;5.35;;
12302;SDS011;6214;48.012;7.862;2023-06-26T12:05:16;7.45;;;5.50;;
12302;SDS011;6214;48.012;7.862;2023-06-26T12:07:45;8.38;;;5.28;;
12302;SDS011;6214;48.012;7.862;2023-06-26T12:10:13;7.50;;;5.40;;
12302;SDS011;6214;48.012;7.862;2023-06-26T12:12:41;7.70;;;5.40;;
12302;SDS011;6214;48.012;7.862;2023-06-26T12:15:14;6.72;;;5.05;;
12302;SDS011;6214;48.012;7.862;2023-06-26T12:17:42;8.10;;;5.18;;
12302;SDS011;6214;48.012;7.862;2023-06-26T12:20:18;8.13;;;5.15;;
12302;SDS011;6214;48.012;7.862;2023-06-26T12:22:48;8.07;;;5.00;;
12302;SDS011;6214;48.012;7.862;2023-06-26T12:25:15;7.95;;;4.60;;
12302;SDS011;6214;48.012;7.862;2023-06-26T12:27:47;9.15;;;4.80;;
12302;SDS011;6214;48.012;7.862;2023-06-26T12:30:14;6.78;;;4.80;;
12302;SDS011;6214;48.012;7.862;2023-06-26T12:32:44;7.60;;;5.00;;
12302;SDS011;6214;48.012;7.862;2023-06-26T12:35:13;7.10;;;4.80;;
12302;SDS011;6214;48.012;7.862;2023-06-26T12:37:42;7.68;;;4.82;;
12302;SDS011;6214;48.012;7.862;2023-06-26T12:40:20;7.22;;;4.80;;
12302;SDS011;6214;48.012;7.862;2023-06-26T12:42:49;7.90;;;4.90;;
12302;SDS011;6214;48.012;7.862;2023-06-26T12:45:16;7.53;;;5.00;;
12302;SDS011;6214;48.012;7.862;2023-06-26T12:47:46;6.75;;;4.57;;
12302;SDS011;6214;48.012;7.862;2023-06-26T12:50:14;7.00;;;4.60;;
12302;SDS011;6214;48.012;7.862;2023-06-26T12:52:43;6.85;;;4.78;;
12302;SDS011;6214;48.012;7.862;2023-06-26T12:55:09;7.10;;;4.60;;
12302;SDS011;6214;48.012;7.862;2023-06-26T12:57:36;8.05;;;4.70;;
12302;SDS011;6214;48.012;7.862;2023-06-26T13:00:03;7.20;;;5.00;;
12302;SDS011;6214;48.012;7.862;2023-06-26T13:02:31;6.90;;;4.50;;
12302;SDS011;6214;48.012;7.862;2023-06-26T13:04:58;6.93;;;4.53;;
12302;SDS011;6214;48.012;7.862;2023-06-26T13:07:25;6.30;;;4.17;;
12302;SDS011;6214;48.012;7.862;2023-06-26T13:09:52;6.50;;;4.20;;
12302;SDS011;6214;48.012;7.862;2023-06-26T13:12:19;6.70;;;4.20;;
12302;SDS011;6214;48.012;7.862;2023-06-26T13:14:46;7.53;;;4.40;;
12302;SDS011;6214;48.012;7.862;2023-06-26T13:17:13;6.60;;;4.50;;
12302;SDS011;6214;48.012;7.862;2023-06-26T13:19:39;6.90;;;4.60;;
12302;SDS011;6214;48.012;7.862;2023-06-26T13:22:06;6.80;;;4.03;;
12302;SDS011;6214;48.012;7.862;2023-06-26T13:24:33;7.78;;;4.20;;
12302;SDS011;6214;48.012;7.862;2023-06-26T13:27:00;7.82;;;4.00;;
12302;SDS011;6214;48.012;7.862;2023-06-26T13:29:27;6.80;;;4.10;;
12302;SDS011;6214;48.012;7.862;2023-06-26T13:31:54;7.00;;;4.68;;
12302;SDS011;6214;48.012;7.862;2023-06-26T13:34:23;6.90;;;3.92;;
12302;SDS011;6214;48.012;7.862;2023-06-26T13:36:50;6.38;;;3.70;;
12302;SDS011;6214;48.012;7.862;2023-06-26T13:39:17;6.32;;;3.78;;
12302;SDS011;6214;48.012;7.862;2023-06-26T13:41:44;6.60;;;3.70;;
12302;SDS011;6214;48.012;7.862;2023-06-26T13:44:12;7.18;;;4.10;;
12302;SDS011;6214;48.012;7.862;2023-06-26T13:46:59;6.20;;;3.80;;
12302;SDS011;6214;48.012;7.862;2023-06-26T13:49:26;6.80;;;3.70;;
12302;SDS011;6214;48.012;7.862;2023-06-26T13:51:52;6.22;;;3.70;;
12302;SDS011;6214;48.012;7.862;2023-06-26T13:54:19;8.32;;;3.63;;
12302;SDS011;6214;48.012;7.862;2023-06-26T13:56:46;5.93;;;3.20;;
12302;SDS011;6214;48.012;7.862;2023-06-26T13:59:13;6.80;;;3.25;;
12302;SDS011;6214;48.012;7.862;2023-06-26T14:01:41;6.03;;;3.10;;
12302;SDS011;6214;48.012;7.862;2023-06-26T14:04:10;6.38;;;3.50;;
12302;SDS011;6214;48.012;7.862;2023-06-26T14:06:37;5.70;;;3.03;;
12302;SDS011;6214;48.012;7.862;2023-06-26T14:09:04;8.60;;;3.20;;
12302;SDS011;6214;48.012;7.862;2023-06-26T14:11:31;5.80;;;2.90;;
12302;SDS011;6214;48.012;7.862;2023-06-26T14:13:59;6.80;;;3.30;;
12302;SDS011;6214;48.012;7.862;2023-06-26T14:16:26;5.63;;;2.80;;
12302;SDS011;6214;48.012;7.862;2023-06-26T14:18:55;5.70;;;3.00;;
12302;SDS011;6214;48.012;7.862;2023-06-26T14:21:23;5.47;;;2.85;;
12302;SDS011;6214;48.012;7.862;2023-06-26T14:23:50;6.00;;;3.10;;
12302;SDS011;6214;48.012;7.862;2023-06-26T14:26:16;5.80;;;2.40;;
12302;SDS011;6214;48.012;7.862;2023-06-26T14:28:43;5.57;;;2.60;;
12302;SDS011;6214;48.012;7.862;2023-06-26T14:31:11;6.60;;;2.63;;
12302;SDS011;6214;48.012;7.862;2023-06-26T14:33:38;5.40;;;2.70;;
12302;SDS011;6214;48.012;7.862;2023-06-26T14:36:05;5.63;;;2.70;;
12302;SDS011;6214;48.012;7.862;2023-06-26T14:38:32;5.20;;;2.60;;
12302;SDS011;6214;48.012;7.862;2023-06-26T14:40:59;5.65;;;2.70;;
12302;SDS011;6214;48.012;7.862;2023-06-26T14:43:26;6.80;;;2.70;;
12302;SDS011;6214;48.012;7.862;2023-06-26T14:45:54;6.22;;;3.10;;
12302;SDS011;6214;48.012;7.862;2023-06-26T14:48:21;5.30;;;2.72;;
12302;SDS011;6214;48.012;7.862;2023-06-26T14:50:49;6.10;;;2.65;;
12302;SDS011;6214;48.012;7.862;2023-06-26T14:53:15;7.10;;;3.10;;
12302;SDS011;6214;48.012;7.862;2023-06-26T14:55:43;6.30;;;3.40;;
12302;SDS011;6214;48.012;7.862;2023-06-26T14:58:10;6.60;;;3.47;;
12302;SDS011;6214;48.012;7.862;2023-06-26T15:00:37;5.85;;;3.10;;
12302;SDS011;6214;48.012;7.862;2023-06-26T15:03:04;5.68;;;3.08;;
12302;SDS011;6214;48.012;7.862;2023-06-26T15:05:31;5.65;;;3.00;;
12302;SDS011;6214;48.012;7.862;2023-06-26T15:07:58;6.35;;;3.20;;
12302;SDS011;6214;48.012;7.862;2023-06-26T15:10:25;6.10;;;3.20;;
12302;SDS011;6214;48.012;7.862;2023-06-26T15:12:54;5.97;;;3.30;;
12302;SDS011;6214;48.012;7.862;2023-06-26T15:15:21;6.00;;;3.13;;
12302;SDS011;6214;48.012;7.862;2023-06-26T15:17:48;6.47;;;3.60;;
12302;SDS011;6214;48.012;7.862;2023-06-26T15:20:15;6.30;;;3.60;;
12302;SDS011;6214;48.012;7.862;2023-06-26T15:22:42;6.40;;;3.23;;